Time;durP1;ratioP1;P1;durP2;ratioP2;P2;SDS_P1;SDS_P2;PMS_P1;PMS_P2;Temp;Humidity;BMP_temperature;BMP_pressure;BME280_temperature;BME280_humidity;BME280_pressure;Samples;Min_cycle;Max_cycle;Signal;HPM_P1;HPM_P2
2023/03/21 00:02:12;;;;;;;7.45;3.97;;;;;;;;;;5002145;28;20070;-58
2023/03/21 00:04:39;;;;;;;4.50;3.08;;;;;;;;;;5001794;28;20125;-58
2023/03/21 00:07:05;;;;;;;6.85;3.40;;;;;;;;;;4981293;28;20049;-58
2023/03/21 00:09:31;;;;;;;6.50;2.63;;;;;;;;;;4984248;28;20046;-58
2023/03/21 00:12:07;;;;;;;8.07;3.47;;;;;;;;;;4998646;28;20089;-58
2023/03/21 00:15:03;;;;;;;5.45;4.28;;;;;;;;;;4999446;28;20055;-58
2023/03/21 00:17:38;;;;;;;5.90;3.42;;;;;;;;;;4966876;28;20119;-58
2023/03/21 00:20:13;;;;;;;5.03;2.90;;;;;;;;;;4998840;28;20619;-58
2023/03/21 00:22:40;;;;;;;5.68;2.72;;;;;;;;;;4964943;28;20125;-58
2023/03/21 00:25:07;;;;;;;5.88;2.88;;;;;;;;;;5055875;28;20087;-58
2023/03/21 00:27:33;;;;;;;6.20;2.90;;;;;;;;;;5067001;28;20669;-58
2023/03/21 00:29:59;;;;;;;9.02;3.55;;;;;;;;;;5070893;28;20051;-58
2023/03/21 00:32:25;;;;;;;8.40;3.78;;;;;;;;;;5068139;28;20028;-58
2023/03/21 00:34:51;;;;;;;5.13;3.17;;;;;;;;;;5072274;28;20045;-58
2023/03/21 00:37:18;;;;;;;5.03;3.03;;;;;;;;;;5067745;28;20040;-58
2023/03/21 00:39:47;;;;;;;7.30;2.95;;;;;;;;;;5052268;28;20479;-59
2023/03/21 00:42:14;;;;;;;9.50;3.90;;;;;;;;;;5066846;28;20508;-58
2023/03/21 00:44:40;;;;;;;10.02;3.95;;;;;;;;;;5070306;28;20044;-58
2023/03/21 00:47:06;;;;;;;8.10;3.25;;;;;;;;;;5068856;28;20665;-58
2023/03/21 00:49:33;;;;;;;7.85;3.63;;;;;;;;;;5046343;28;20690;-58
2023/03/21 00:52:03;;;;;;;7.85;3.13;;;;;;;;;;5069957;28;20048;-58
2023/03/21 00:54:29;;;;;;;7.97;3.40;;;;;;;;;;5068789;28;20546;-58
2023/03/21 00:56:55;;;;;;;4.93;2.65;;;;;;;;;;5070126;28;20683;-58
2023/03/21 00:59:22;;;;;;;5.88;3.00;;;;;;;;;;5068524;28;20044;-58
2023/03/21 01:01:48;;;;;;;7.97;3.78;;;;;;;;;;5068877;28;20131;-58
2023/03/21 01:04:15;;;;;;;7.35;2.65;;;;;;;;;;5071234;28;20052;-58
2023/03/21 01:06:42;;;;;;;6.60;2.78;;;;;;;;;;5071525;28;20367;-59
2023/03/21 01:09:13;;;;;;;7.28;2.92;;;;;;;;;;5071556;28;20709;-58
2023/03/21 01:11:39;;;;;;;5.13;3.13;;;;;;;;;;5069655;28;20091;-58
2023/03/21 01:14:05;;;;;;;4.57;3.08;;;;;;;;;;5068874;28;20532;-58
2023/03/21 01:16:31;;;;;;;6.50;3.20;;;;;;;;;;5070720;28;20041;-58
2023/03/21 01:18:58;;;;;;;7.15;3.15;;;;;;;;;;5067723;28;20044;-58
2023/03/21 01:21:24;;;;;;;8.38;3.38;;;;;;;;;;5040189;28;20691;-58
2023/03/21 01:23:51;;;;;;;9.45;4.82;;;;;;;;;;5067197;28;20045;-58
2023/03/21 01:26:17;;;;;;;8.30;3.22;;;;;;;;;;5069304;28;20064;-58
2023/03/21 01:28:44;;;;;;;10.63;3.67;;;;;;;;;;5067725;28;20430;-58
2023/03/21 01:31:11;;;;;;;7.78;4.05;;;;;;;;;;5068684;28;20115;-58
2023/03/21 01:33:37;;;;;;;5.82;2.90;;;;;;;;;;5069620;28;20045;-58
2023/03/21 01:36:04;;;;;;;7.10;3.08;;;;;;;;;;5044294;28;20043;-58
2023/03/21 01:38:30;;;;;;;11.32;3.72;;;;;;;;;;5050740;28;20043;-58
2023/03/21 01:40:59;;;;;;;8.52;4.10;;;;;;;;;;5069133;28;20613;-58
2023/03/21 01:43:33;;;;;;;7.97;3.00;;;;;;;;;;5045749;28;20534;-58
2023/03/21 01:45:59;;;;;;;6.80;3.72;;;;;;;;;;5060466;28;20605;-58
2023/03/21 01:48:26;;;;;;;8.02;4.05;;;;;;;;;;5062303;28;20051;-58
2023/03/21 01:50:52;;;;;;;5.22;2.78;;;;;;;;;;5068287;28;20045;-58
2023/03/21 01:53:24;;;;;;;7.28;3.47;;;;;;;;;;5064749;28;20175;-58
2023/03/21 01:55:50;;;;;;;11.73;4.03;;;;;;;;;;5068201;28;20045;-58
2023/03/21 01:58:21;;;;;;;6.95;3.20;;;;;;;;;;5065692;28;20049;-58
2023/03/21 02:00:50;;;;;;;7.65;3.33;;;;;;;;;;5064911;28;20048;-58
2023/03/21 02:03:16;;;;;;;7.28;4.68;;;;;;;;;;5040506;28;20053;-58
2023/03/21 02:05:48;;;;;;;11.25;2.83;;;;;;;;;;5066166;28;20041;-58
2023/03/21 02:08:14;;;;;;;5.07;3.03;;;;;;;;;;5068706;28;20041;-58
2023/03/21 02:10:42;;;;;;;5.55;2.53;;;;;;;;;;5063981;28;20191;-58
2023/03/21 02:13:08;;;;;;;6.70;3.65;;;;;;;;;;5062973;28;20053;-58
2023/03/21 02:15:38;;;;;;;9.38;3.22;;;;;;;;;;5068950;28;20040;-58
2023/03/21 02:18:19;;;;;;;7.82;3.42;;;;;;;;;;5065601;28;20037;-58
2023/03/21 02:21:05;;;;;;;12.90;5.25;;;;;;;;;;5067865;28;20499;-58
2023/03/21 02:23:42;;;;;;;6.28;3.58;;;;;;;;;;5063951;28;20120;-58
2023/03/21 02:26:29;;;;;;;5.97;3.13;;;;;;;;;;5067987;28;20580;-59
2023/03/21 02:29:02;;;;;;;5.20;3.33;;;;;;;;;;5037342;28;20048;-58
2023/03/21 02:31:28;;;;;;;4.75;2.88;;;;;;;;;;5067580;28;20549;-58
2023/03/21 02:33:57;;;;;;;6.28;3.83;;;;;;;;;;5067093;28;20050;-58
2023/03/21 02:36:32;;;;;;;7.53;3.78;;;;;;;;;;5070290;28;20128;-58
2023/03/21 02:39:12;;;;;;;8.23;2.88;;;;;;;;;;5071547;28;20028;-58
2023/03/21 02:41:48;;;;;;;6.90;3.08;;;;;;;;;;5067220;28;20048;-58
2023/03/21 02:44:18;;;;;;;5.43;3.10;;;;;;;;;;5070226;28;20098;-57
2023/03/21 02:46:49;;;;;;;7.43;3.00;;;;;;;;;;5070539;28;20037;-59
2023/03/21 02:49:29;;;;;;;5.68;2.95;;;;;;;;;;5072513;28;20037;-58
2023/03/21 02:51:57;;;;;;;6.25;2.55;;;;;;;;;;5044933;28;20126;-58
2023/03/21 02:54:24;;;;;;;5.18;3.33;;;;;;;;;;5072971;28;20102;-58
2023/03/21 02:56:51;;;;;;;5.32;3.72;;;;;;;;;;5068832;28;20059;-58
2023/03/21 02:59:18;;;;;;;8.02;3.38;;;;;;;;;;5047418;28;20047;-57
2023/03/21 03:01:44;;;;;;;6.55;3.03;;;;;;;;;;5053463;28;20631;-57
2023/03/21 03:04:27;;;;;;;5.38;4.28;;;;;;;;;;5071628;28;20045;-58
2023/03/21 03:07:13;;;;;;;7.03;2.70;;;;;;;;;;5071887;28;20560;-57
2023/03/21 03:10:14;;;;;;;5.93;2.53;;;;;;;;;;5072101;28;20091;-58
2023/03/21 03:12:49;;;;;;;7.88;2.80;;;;;;;;;;4968110;28;20055;-57
2023/03/21 03:15:27;;;;;;;6.28;2.78;;;;;;;;;;5040818;28;20076;-58
2023/03/21 03:17:54;;;;;;;6.68;3.10;;;;;;;;;;5050003;28;20041;-58
2023/03/21 03:20:24;;;;;;;5.25;2.85;;;;;;;;;;5051920;28;20045;-58
2023/03/21 03:23:05;;;;;;;6.22;2.72;;;;;;;;;;5048592;28;20527;-58
2023/03/21 03:25:35;;;;;;;7.90;3.47;;;;;;;;;;5051549;28;20077;-59
2023/03/21 03:28:04;;;;;;;6.68;2.72;;;;;;;;;;5050137;28;20083;-58
2023/03/21 03:30:30;;;;;;;5.25;3.63;;;;;;;;;;5050339;28;20041;-58
2023/03/21 03:33:01;;;;;;;4.72;3.03;;;;;;;;;;5050156;28;20561;-58
2023/03/21 03:35:27;;;;;;;7.35;3.25;;;;;;;;;;5051709;28;20045;-58
2023/03/21 03:37:55;;;;;;;5.00;2.83;;;;;;;;;;5051209;28;20240;-58
2023/03/21 03:40:35;;;;;;;10.40;4.22;;;;;;;;;;5046482;28;20048;-58
2023/03/21 03:43:04;;;;;;;5.65;3.42;;;;;;;;;;5048453;28;20081;-59
2023/03/21 03:45:42;;;;;;;7.75;3.53;;;;;;;;;;5052662;28;20545;-58
2023/03/21 03:48:11;;;;;;;6.40;4.25;;;;;;;;;;5049963;28;20928;-58
2023/03/21 03:50:49;;;;;;;5.95;3.30;;;;;;;;;;5051196;28;20321;-58
2023/03/21 03:53:19;;;;;;;7.18;2.78;;;;;;;;;;5048662;28;20037;-58
2023/03/21 03:55:45;;;;;;;6.47;3.55;;;;;;;;;;5051075;28;20048;-58
2023/03/21 03:58:12;;;;;;;6.40;3.70;;;;;;;;;;5045224;28;20094;-58
2023/03/21 04:00:38;;;;;;;7.25;3.55;;;;;;;;;;5040958;28;22491;-58
2023/03/21 04:03:05;;;;;;;5.30;3.25;;;;;;;;;;5045353;28;20506;-59
2023/03/21 04:05:32;;;;;;;5.82;3.00;;;;;;;;;;5043858;28;20586;-58
2023/03/21 04:07:58;;;;;;;6.18;2.78;;;;;;;;;;5045948;28;20041;-58
2023/03/21 04:10:24;;;;;;;4.53;2.88;;;;;;;;;;5046551;28;21146;-58
2023/03/21 04:12:50;;;;;;;7.07;3.22;;;;;;;;;;5061644;28;20557;-58
2023/03/21 04:15:17;;;;;;;6.85;4.03;;;;;;;;;;5074030;28;20584;-58
2023/03/21 04:17:44;;;;;;;7.25;3.15;;;;;;;;;;5070974;28;20059;-58
2023/03/21 04:20:10;;;;;;;8.30;3.42;;;;;;;;;;5071538;28;20037;-58
2023/03/21 04:22:36;;;;;;;5.38;3.33;;;;;;;;;;5048541;28;20040;-58
2023/03/21 04:25:04;;;;;;;8.07;3.63;;;;;;;;;;5070688;28;20560;-58
2023/03/21 04:27:31;;;;;;;6.40;3.63;;;;;;;;;;5071136;28;20549;-58
2023/03/21 04:29:57;;;;;;;12.75;4.00;;;;;;;;;;5070911;28;20146;-58
2023/03/21 04:32:24;;;;;;;5.38;3.40;;;;;;;;;;5070914;28;20575;-58
2023/03/21 04:34:52;;;;;;;4.43;2.70;;;;;;;;;;5069990;28;20046;-58
2023/03/21 04:37:19;;;;;;;5.45;3.70;;;;;;;;;;5068638;28;20045;-58
2023/03/21 04:39:46;;;;;;;7.88;3.78;;;;;;;;;;5068912;28;20032;-58
2023/03/21 04:42:17;;;;;;;7.25;3.92;;;;;;;;;;5067593;28;20044;-58
2023/03/21 04:44:46;;;;;;;6.97;4.00;;;;;;;;;;5065907;28;20048;-58
2023/03/21 04:47:14;;;;;;;6.78;3.17;;;;;;;;;;5068462;28;20051;-58
2023/03/21 04:49:40;;;;;;;6.18;3.65;;;;;;;;;;5068996;28;20207;-58
2023/03/21 04:52:06;;;;;;;8.82;3.58;;;;;;;;;;5069549;28;20179;-59
2023/03/21 04:54:32;;;;;;;5.65;3.45;;;;;;;;;;5070616;28;20574;-58
2023/03/21 04:56:59;;;;;;;6.95;2.88;;;;;;;;;;5069696;28;20106;-58
2023/03/21 04:59:25;;;;;;;12.18;3.97;;;;;;;;;;5068491;28;20043;-58
2023/03/21 05:01:51;;;;;;;7.00;4.20;;;;;;;;;;5045509;28;20554;-58
2023/03/21 05:04:17;;;;;;;7.53;3.53;;;;;;;;;;5070818;28;20043;-58
2023/03/21 05:06:44;;;;;;;8.75;3.33;;;;;;;;;;5070815;28;20033;-58
2023/03/21 05:09:10;;;;;;;4.65;3.05;;;;;;;;;;5052751;28;20124;-58
2023/03/21 05:11:38;;;;;;;13.48;4.80;;;;;;;;;;5066274;28;20157;-58
2023/03/21 05:14:04;;;;;;;6.25;3.17;;;;;;;;;;5064394;28;20041;-56
2023/03/21 05:16:31;;;;;;;7.25;3.65;;;;;;;;;;5067306;28;20032;-57
2023/03/21 05:18:58;;;;;;;7.60;3.55;;;;;;;;;;5068987;28;20075;-57
2023/03/21 05:21:28;;;;;;;5.78;4.32;;;;;;;;;;5068131;28;20032;-57
2023/03/21 05:23:54;;;;;;;10.23;4.20;;;;;;;;;;5065300;28;20490;-57
2023/03/21 05:26:21;;;;;;;7.03;3.22;;;;;;;;;;5066649;28;20596;-57
2023/03/21 05:28:48;;;;;;;6.72;3.15;;;;;;;;;;5066953;28;20466;-57
2023/03/21 05:31:17;;;;;;;8.52;3.78;;;;;;;;;;5065381;28;20036;-57
2023/03/21 05:33:44;;;;;;;7.82;3.60;;;;;;;;;;5069316;28;20076;-57
2023/03/21 05:36:10;;;;;;;6.20;4.28;;;;;;;;;;5070048;28;20095;-57
2023/03/21 05:38:36;;;;;;;6.53;3.55;;;;;;;;;;5069665;28;20036;-57
2023/03/21 05:41:02;;;;;;;7.65;3.88;;;;;;;;;;5044165;28;20534;-57
2023/03/21 05:43:29;;;;;;;6.57;4.28;;;;;;;;;;5065810;28;20048;-57
2023/03/21 05:45:55;;;;;;;10.57;4.03;;;;;;;;;;5066680;28;20044;-57
2023/03/21 05:48:21;;;;;;;6.40;4.10;;;;;;;;;;5066213;28;20032;-57
2023/03/21 05:50:47;;;;;;;7.57;3.35;;;;;;;;;;5064308;28;20329;-57
2023/03/21 05:53:13;;;;;;;7.18;4.43;;;;;;;;;;5045433;28;20048;-57
2023/03/21 05:55:39;;;;;;;13.60;3.97;;;;;;;;;;5070592;28;20032;-58
2023/03/21 05:58:05;;;;;;;11.00;4.25;;;;;;;;;;5069576;28;20506;-57
2023/03/21 06:00:31;;;;;;;10.43;4.50;;;;;;;;;;5050755;28;20459;-58
2023/03/21 06:02:57;;;;;;;6.53;3.22;;;;;;;;;;5068796;28;20040;-57
2023/03/21 06:05:24;;;;;;;7.88;3.35;;;;;;;;;;5069479;28;20091;-57
2023/03/21 06:07:50;;;;;;;8.50;3.70;;;;;;;;;;5071049;28;20118;-57
2023/03/21 06:10:16;;;;;;;6.60;3.10;;;;;;;;;;5067561;28;20052;-57
2023/03/21 06:12:42;;;;;;;11.18;4.95;;;;;;;;;;5072034;28;20083;-58
2023/03/21 06:15:09;;;;;;;8.52;4.13;;;;;;;;;;5051619;28;20796;-58
2023/03/21 06:17:35;;;;;;;7.60;3.85;;;;;;;;;;5074870;28;20040;-58
2023/03/21 06:20:03;;;;;;;8.30;3.30;;;;;;;;;;5073046;28;20117;-57
2023/03/21 06:22:29;;;;;;;10.45;4.72;;;;;;;;;;5069818;28;20349;-58
2023/03/21 06:24:55;;;;;;;6.28;3.60;;;;;;;;;;5072500;28;20048;-58
2023/03/21 06:27:21;;;;;;;8.27;3.20;;;;;;;;;;5074694;28;20102;-58
2023/03/21 06:29:48;;;;;;;6.10;4.10;;;;;;;;;;5072630;28;20617;-57
2023/03/21 06:32:15;;;;;;;5.18;3.58;;;;;;;;;;5044846;28;20045;-58
2023/03/21 06:34:41;;;;;;;7.75;4.68;;;;;;;;;;5071995;28;20063;-58
2023/03/21 06:37:07;;;;;;;10.75;5.63;;;;;;;;;;5068971;28;20040;-57
2023/03/21 06:39:33;;;;;;;9.63;4.13;;;;;;;;;;5064032;28;20068;-57
2023/03/21 06:42:00;;;;;;;10.13;4.25;;;;;;;;;;5073518;28;20048;-57
2023/03/21 06:44:26;;;;;;;8.77;4.95;;;;;;;;;;5075474;28;20155;-58
2023/03/21 06:46:52;;;;;;;8.90;3.78;;;;;;;;;;5073898;28;20037;-57
2023/03/21 06:49:19;;;;;;;9.15;3.88;;;;;;;;;;5074023;28;20036;-57
2023/03/21 06:51:45;;;;;;;8.77;3.97;;;;;;;;;;5057534;28;20041;-57
2023/03/21 06:54:13;;;;;;;8.90;3.90;;;;;;;;;;5075801;28;20118;-58
2023/03/21 06:56:40;;;;;;;9.85;3.58;;;;;;;;;;5076748;28;20072;-58
2023/03/21 06:59:07;;;;;;;7.00;3.60;;;;;;;;;;5075817;28;20064;-57
2023/03/21 07:01:33;;;;;;;11.98;3.80;;;;;;;;;;5075041;28;20369;-57
2023/03/21 07:03:59;;;;;;;12.85;3.75;;;;;;;;;;5076213;28;20120;-57
2023/03/21 07:06:26;;;;;;;6.45;3.65;;;;;;;;;;5074146;28;20083;-57
2023/03/21 07:08:53;;;;;;;8.57;3.90;;;;;;;;;;5074368;28;20041;-57
2023/03/21 07:11:19;;;;;;;7.90;3.95;;;;;;;;;;5075368;28;20605;-57
2023/03/21 07:13:47;;;;;;;7.93;3.42;;;;;;;;;;5076355;28;20044;-57
2023/03/21 07:16:13;;;;;;;6.97;4.00;;;;;;;;;;5049542;28;20127;-58
2023/03/21 07:18:39;;;;;;;9.75;4.60;;;;;;;;;;5075874;28;20523;-57
2023/03/21 07:21:06;;;;;;;14.77;4.05;;;;;;;;;;5073885;28;20056;-57
2023/03/21 07:23:32;;;;;;;11.07;4.72;;;;;;;;;;5075981;28;20040;-57
2023/03/21 07:25:58;;;;;;;8.70;4.32;;;;;;;;;;5073041;28;20040;-57
2023/03/21 07:28:24;;;;;;;8.88;4.40;;;;;;;;;;5077732;28;20299;-57
2023/03/21 07:30:55;;;;;;;9.40;4.75;;;;;;;;;;5075210;28;20140;-57
2023/03/21 07:33:22;;;;;;;5.80;3.75;;;;;;;;;;5074865;28;20067;-57
2023/03/21 07:35:48;;;;;;;8.18;3.88;;;;;;;;;;5074415;28;20045;-57
2023/03/21 07:38:16;;;;;;;8.63;4.25;;;;;;;;;;5076585;28;20174;-59
2023/03/21 07:40:42;;;;;;;7.22;3.90;;;;;;;;;;5057779;28;20423;-59
2023/03/21 07:43:09;;;;;;;9.05;3.88;;;;;;;;;;5075336;28;20238;-57
2023/03/21 07:45:35;;;;;;;7.93;3.35;;;;;;;;;;5075650;28;20075;-57
2023/03/21 07:48:01;;;;;;;6.57;3.58;;;;;;;;;;5076542;28;20485;-57
2023/03/21 07:50:27;;;;;;;9.98;4.63;;;;;;;;;;5076181;28;20067;-57
2023/03/21 07:52:53;;;;;;;9.95;3.63;;;;;;;;;;5076369;28;20044;-58
2023/03/21 07:55:19;;;;;;;13.63;3.53;;;;;;;;;;5075418;28;20422;-58
2023/03/21 07:57:46;;;;;;;6.28;3.97;;;;;;;;;;5076520;28;20044;-58
2023/03/21 08:00:21;;;;;;;9.82;3.75;;;;;;;;;;5057922;28;20041;-58
2023/03/21 08:02:47;;;;;;;8.73;3.55;;;;;;;;;;5076061;28;20037;-59
2023/03/21 08:05:13;;;;;;;9.88;4.95;;;;;;;;;;5074990;28;20135;-58
2023/03/21 08:07:40;;;;;;;6.47;3.05;;;;;;;;;;5075478;28;20051;-58
2023/03/21 08:10:06;;;;;;;6.85;3.63;;;;;;;;;;5073444;28;20052;-58
2023/03/21 08:12:32;;;;;;;8.73;4.70;;;;;;;;;;5075083;28;20125;-57
2023/03/21 08:14:58;;;;;;;4.63;3.15;;;;;;;;;;5075866;28;20047;-57
2023/03/21 08:17:24;;;;;;;8.45;4.30;;;;;;;;;;5073448;28;20066;-57
2023/03/21 08:19:50;;;;;;;10.60;3.80;;;;;;;;;;5074815;28;20049;-58
2023/03/21 08:22:16;;;;;;;7.80;5.03;;;;;;;;;;5071941;28;20096;-57
2023/03/21 08:24:43;;;;;;;9.65;4.57;;;;;;;;;;5071262;28;20661;-57
2023/03/21 08:27:09;;;;;;;4.07;2.60;;;;;;;;;;5074673;28;20368;-58
2023/03/21 08:29:39;;;;;;;10.82;3.53;;;;;;;;;;5074545;28;20187;-57
2023/03/21 08:32:05;;;;;;;5.78;3.67;;;;;;;;;;5070305;28;20061;-57
2023/03/21 08:34:31;;;;;;;7.90;3.80;;;;;;;;;;5073775;28;20102;-58
2023/03/21 08:36:58;;;;;;;7.30;3.80;;;;;;;;;;5074553;28;20590;-57
2023/03/21 08:39:24;;;;;;;9.18;3.28;;;;;;;;;;5074476;28;20047;-57
2023/03/21 08:41:51;;;;;;;5.60;3.28;;;;;;;;;;5073893;28;20064;-57
2023/03/21 08:44:17;;;;;;;9.70;3.80;;;;;;;;;;5074296;28;20539;-58
2023/03/21 08:46:43;;;;;;;6.97;2.85;;;;;;;;;;5075014;28;20040;-57
2023/03/21 08:49:09;;;;;;;6.78;3.20;;;;;;;;;;5073992;28;20049;-57
2023/03/21 08:51:36;;;;;;;9.82;3.08;;;;;;;;;;5070778;28;20641;-57
2023/03/21 08:54:02;;;;;;;11.77;3.95;;;;;;;;;;5073796;28;20041;-58
2023/03/21 08:56:29;;;;;;;5.55;3.83;;;;;;;;;;5048395;28;20041;-57
2023/03/21 08:58:55;;;;;;;8.10;3.33;;;;;;;;;;5074718;28;20585;-57
2023/03/21 09:01:21;;;;;;;7.35;3.00;;;;;;;;;;5073648;28;20044;-57
2023/03/21 09:03:47;;;;;;;6.30;3.42;;;;;;;;;;5075851;28;20037;-57
2023/03/21 09:06:14;;;;;;;6.20;2.90;;;;;;;;;;5073718;28;20048;-57
2023/03/21 09:08:42;;;;;;;7.78;3.38;;;;;;;;;;5074906;28;20049;-57
2023/03/21 09:11:09;;;;;;;6.75;3.00;;;;;;;;;;5072970;28;20037;-57
2023/03/21 09:13:35;;;;;;;7.90;2.85;;;;;;;;;;5073129;28;20064;-57
2023/03/21 09:16:01;;;;;;;5.15;3.00;;;;;;;;;;5074024;28;20078;-57
2023/03/21 09:18:48;;;;;;;5.20;2.85;;;;;;;;;;5074101;28;20052;-57
2023/03/21 09:21:15;;;;;;;8.63;2.85;;;;;;;;;;5073617;28;20032;-57
2023/03/21 09:23:43;;;;;;;7.15;3.00;;;;;;;;;;5073558;28;20040;-57
2023/03/21 09:26:10;;;;;;;5.38;3.10;;;;;;;;;;5073346;28;20032;-57
2023/03/21 09:28:37;;;;;;;6.43;3.13;;;;;;;;;;5075038;28;20545;-57
2023/03/21 09:31:04;;;;;;;9.00;2.42;;;;;;;;;;5073041;28;20044;-57
2023/03/21 09:33:31;;;;;;;7.03;2.88;;;;;;;;;;5049114;28;20052;-57
2023/03/21 09:35:59;;;;;;;5.90;2.75;;;;;;;;;;5072910;28;20534;-57
2023/03/21 09:38:35;;;;;;;7.57;3.83;;;;;;;;;;5073714;28;20064;-57
2023/03/21 09:41:21;;;;;;;4.65;3.10;;;;;;;;;;5048219;28;20109;-56
2023/03/21 09:43:48;;;;;;;5.13;3.05;;;;;;;;;;5057422;28;20467;-57
2023/03/21 09:46:15;;;;;;;7.40;3.40;;;;;;;;;;5068792;28;20040;-57
2023/03/21 09:48:41;;;;;;;7.60;3.30;;;;;;;;;;5082606;28;20071;-57
2023/03/21 09:51:11;;;;;;;7.07;2.97;;;;;;;;;;5076790;28;20099;-57
2023/03/21 09:53:39;;;;;;;8.23;2.70;;;;;;;;;;5063575;28;20412;-57
2023/03/21 09:56:07;;;;;;;9.43;4.97;;;;;;;;;;5079018;28;20047;-57
2023/03/21 09:58:36;;;;;;;11.05;4.13;;;;;;;;;;5080903;28;20055;-57
2023/03/21 10:01:26;;;;;;;5.30;3.45;;;;;;;;;;5078246;28;20044;-56
2023/03/21 10:03:55;;;;;;;6.47;2.63;;;;;;;;;;5080656;28;20134;-57
2023/03/21 10:06:28;;;;;;;5.10;2.70;;;;;;;;;;5063003;28;20074;-57
2023/03/21 10:09:06;;;;;;;8.18;4.13;;;;;;;;;;5079950;28;20076;-57
2023/03/21 10:11:40;;;;;;;8.38;3.28;;;;;;;;;;5079474;28;20099;-57
2023/03/21 10:14:11;;;;;;;10.40;3.42;;;;;;;;;;5078710;28;20152;-57
2023/03/21 10:16:41;;;;;;;10.18;3.70;;;;;;;;;;5079262;28;20044;-56
2023/03/21 10:19:11;;;;;;;5.57;3.20;;;;;;;;;;5061720;28;20082;-57
2023/03/21 10:21:42;;;;;;;6.07;3.10;;;;;;;;;;5079649;28;20040;-57
2023/03/21 10:24:09;;;;;;;8.73;3.45;;;;;;;;;;5079419;28;20097;-57
2023/03/21 10:26:35;;;;;;;4.05;3.10;;;;;;;;;;5080034;28;20049;-57
2023/03/21 10:29:01;;;;;;;8.57;3.25;;;;;;;;;;5079077;28;20475;-57
2023/03/21 10:31:28;;;;;;;6.20;3.25;;;;;;;;;;5079257;28;20048;-57
2023/03/21 10:33:56;;;;;;;10.90;3.70;;;;;;;;;;5078033;28;20047;-57
2023/03/21 10:36:24;;;;;;;6.30;3.10;;;;;;;;;;5080267;28;20082;-57
2023/03/21 10:38:53;;;;;;;5.22;2.83;;;;;;;;;;5080441;28;20079;-57
2023/03/21 10:41:23;;;;;;;4.32;3.13;;;;;;;;;;5078822;28;20036;-57
2023/03/21 10:44:03;;;;;;;6.43;3.47;;;;;;;;;;5080694;28;20044;-57
2023/03/21 10:46:30;;;;;;;8.52;2.95;;;;;;;;;;5078490;28;20545;-57
2023/03/21 10:48:56;;;;;;;6.72;4.18;;;;;;;;;;5079403;28;20045;-57
2023/03/21 10:51:25;;;;;;;7.07;4.18;;;;;;;;;;5078926;28;20585;-57
2023/03/21 10:53:53;;;;;;;5.22;2.75;;;;;;;;;;5061937;28;20094;-57
2023/03/21 10:56:22;;;;;;;5.80;2.92;;;;;;;;;;5079060;28;20032;-57
2023/03/21 10:58:49;;;;;;;11.15;4.93;;;;;;;;;;5077077;28;20501;-57
2023/03/21 11:01:24;;;;;;;10.27;3.95;;;;;;;;;;5074725;28;20509;-57
2023/03/21 11:03:55;;;;;;;14.68;5.30;;;;;;;;;;5076703;28;20041;-57
2023/03/21 11:06:22;;;;;;;7.88;3.25;;;;;;;;;;5075534;28;20142;-56
2023/03/21 11:08:55;;;;;;;7.40;3.08;;;;;;;;;;5075675;28;20106;-57
2023/03/21 11:11:26;;;;;;;6.75;2.80;;;;;;;;;;5075035;28;20122;-57
2023/03/21 11:13:57;;;;;;;8.90;3.65;;;;;;;;;;5073493;28;20057;-57
2023/03/21 11:16:23;;;;;;;9.47;4.50;;;;;;;;;;5075220;28;20067;-57
2023/03/21 11:18:50;;;;;;;9.13;2.75;;;;;;;;;;5076570;28;20084;-57
2023/03/21 11:21:17;;;;;;;6.65;2.55;;;;;;;;;;5076367;28;20431;-57
2023/03/21 11:23:47;;;;;;;5.07;2.15;;;;;;;;;;5075982;28;20080;-58
2023/03/21 11:26:27;;;;;;;4.38;1.90;;;;;;;;;;5051306;28;20048;-57
2023/03/21 11:28:54;;;;;;;3.67;2.67;;;;;;;;;;5075211;28;20553;-57
2023/03/21 11:31:23;;;;;;;4.70;1.95;;;;;;;;;;5076389;28;20040;-58
2023/03/21 11:33:55;;;;;;;3.30;2.15;;;;;;;;;;5076978;28;20132;-58
2023/03/21 11:36:21;;;;;;;4.78;2.40;;;;;;;;;;5075746;28;20098;-58
2023/03/21 11:38:51;;;;;;;3.40;1.55;;;;;;;;;;5076125;28;20045;-57
2023/03/21 11:41:31;;;;;;;4.05;1.85;;;;;;;;;;5075018;28;20090;-58
2023/03/21 11:43:57;;;;;;;5.32;1.80;;;;;;;;;;5075193;28;20101;-58
2023/03/21 11:46:25;;;;;;;3.22;1.63;;;;;;;;;;5075087;28;20037;-58
2023/03/21 11:48:51;;;;;;;3.47;1.52;;;;;;;;;;5075191;28;20171;-58
2023/03/21 11:51:32;;;;;;;8.30;1.98;;;;;;;;;;5075814;28;20550;-58
2023/03/21 11:54:14;;;;;;;3.45;1.88;;;;;;;;;;5074538;28;20551;-58
2023/03/21 11:56:40;;;;;;;2.45;1.35;;;;;;;;;;5075451;28;20522;-57
2023/03/21 11:59:06;;;;;;;3.05;1.77;;;;;;;;;;5074744;28;20048;-58
2023/03/21 12:01:36;;;;;;;4.53;1.15;;;;;;;;;;5073782;28;20047;-57
2023/03/21 12:04:04;;;;;;;2.95;1.55;;;;;;;;;;5073937;28;21207;-57
2023/03/21 12:06:41;;;;;;;2.83;2.00;;;;;;;;;;5075774;28;20102;-57
2023/03/21 12:09:21;;;;;;;3.03;1.90;;;;;;;;;;5048402;28;20048;-57
2023/03/21 12:11:58;;;;;;;2.88;1.90;;;;;;;;;;5056446;28;20048;-57
2023/03/21 12:15:03;;;;;;;2.55;1.58;;;;;;;;;;5073286;28;20064;-57
2023/03/21 12:17:29;;;;;;;3.17;1.52;;;;;;;;;;4964184;28;20058;-57
2023/03/21 12:19:55;;;;;;;4.13;2.00;;;;;;;;;;4962543;28;20114;-57
2023/03/21 12:22:40;;;;;;;6.28;1.67;;;;;;;;;;5014850;28;20617;-57
2023/03/21 12:25:18;;;;;;;5.38;1.67;;;;;;;;;;5075392;28;20041;-57
2023/03/21 12:28:03;;;;;;;2.10;1.52;;;;;;;;;;5073381;28;21003;-57
2023/03/21 12:30:41;;;;;;;6.28;2.05;;;;;;;;;;5074864;28;20131;-57
2023/03/21 12:33:14;;;;;;;3.25;1.70;;;;;;;;;;5074005;28;20051;-57
2023/03/21 12:35:44;;;;;;;3.13;2.00;;;;;;;;;;5075018;28;20470;-57
2023/03/21 12:38:25;;;;;;;3.03;1.80;;;;;;;;;;5073989;28;20044;-57
2023/03/21 12:41:10;;;;;;;4.72;2.33;;;;;;;;;;5074870;28;20173;-57
2023/03/21 12:43:48;;;;;;;3.95;2.10;;;;;;;;;;5072968;28;20045;-57
2023/03/21 12:46:27;;;;;;;5.38;2.40;;;;;;;;;;5074058;28;20143;-57
2023/03/21 12:49:01;;;;;;;5.60;2.67;;;;;;;;;;5073171;28;20181;-57
2023/03/21 12:51:41;;;;;;;5.35;2.88;;;;;;;;;;5074777;28;20151;-57
2023/03/21 12:54:07;;;;;;;5.28;2.72;;;;;;;;;;5073530;28;20631;-57
2023/03/21 12:56:51;;;;;;;8.18;2.65;;;;;;;;;;5075524;28;20074;-58
2023/03/21 12:59:37;;;;;;;4.97;2.83;;;;;;;;;;5076318;28;20033;-58
2023/03/21 13:02:26;;;;;;;6.55;2.83;;;;;;;;;;5072766;28;20152;-58
2023/03/21 13:04:52;;;;;;;4.43;2.70;;;;;;;;;;5073590;28;20808;-57
2023/03/21 13:07:20;;;;;;;5.45;2.50;;;;;;;;;;5074603;28;20067;-58
2023/03/21 13:09:46;;;;;;;4.45;2.45;;;;;;;;;;5049657;28;20140;-58
2023/03/21 13:12:21;;;;;;;5.63;3.08;;;;;;;;;;5072707;28;20071;-58
2023/03/21 13:15:14;;;;;;;3.97;2.88;;;;;;;;;;5073637;28;20078;-58
2023/03/21 13:17:55;;;;;;;4.60;2.83;;;;;;;;;;5068485;28;20105;-58
2023/03/21 13:20:41;;;;;;;5.75;2.67;;;;;;;;;;5072920;28;20047;-58
2023/03/21 13:23:08;;;;;;;5.00;2.78;;;;;;;;;;5072502;28;20040;-58
2023/03/21 13:25:40;;;;;;;7.18;2.85;;;;;;;;;;5074538;28;20659;-58
2023/03/21 13:28:13;;;;;;;5.80;3.20;;;;;;;;;;5072919;28;20032;-58
2023/03/21 13:30:39;;;;;;;8.70;2.30;;;;;;;;;;5072845;28;20626;-58
2023/03/21 13:33:12;;;;;;;5.97;3.00;;;;;;;;;;5072062;28;20181;-58
2023/03/21 13:35:43;;;;;;;6.90;2.55;;;;;;;;;;5072245;28;20124;-58
2023/03/21 13:38:18;;;;;;;4.10;2.42;;;;;;;;;;5073031;28;20146;-58
2023/03/21 13:40:48;;;;;;;4.28;2.45;;;;;;;;;;5074875;28;20071;-58
2023/03/21 13:43:33;;;;;;;3.75;2.45;;;;;;;;;;5070957;28;20067;-58
2023/03/21 13:46:10;;;;;;;3.45;2.33;;;;;;;;;;5073282;28;20036;-58
2023/03/21 13:48:44;;;;;;;5.07;3.33;;;;;;;;;;5072794;28;20071;-58
2023/03/21 13:51:10;;;;;;;3.95;2.63;;;;;;;;;;5073218;28;20094;-58
2023/03/21 13:53:42;;;;;;;8.90;3.33;;;;;;;;;;5072751;28;20044;-57
2023/03/21 13:56:11;;;;;;;4.60;2.38;;;;;;;;;;5073334;28;20181;-58
2023/03/21 13:58:39;;;;;;;4.57;2.63;;;;;;;;;;5073561;28;20037;-57
2023/03/21 14:01:24;;;;;;;4.22;2.28;;;;;;;;;;5071625;28;20044;-57
2023/03/21 14:03:57;;;;;;;5.35;2.38;;;;;;;;;;5074132;28;20037;-58
2023/03/21 14:06:25;;;;;;;5.07;2.30;;;;;;;;;;5073022;28;20553;-58
2023/03/21 14:08:52;;;;;;;3.88;2.38;;;;;;;;;;5073911;28;20079;-58
2023/03/21 14:11:19;;;;;;;3.47;2.30;;;;;;;;;;5072584;28;20049;-58
2023/03/21 14:13:45;;;;;;;4.40;2.55;;;;;;;;;;5073806;28;20723;-58
2023/03/21 14:16:24;;;;;;;4.15;2.22;;;;;;;;;;5071761;28;20040;-58
2023/03/21 14:18:52;;;;;;;4.43;2.45;;;;;;;;;;5072857;28;20354;-59
2023/03/21 14:21:22;;;;;;;4.55;2.40;;;;;;;;;;5054913;28;20041;-58
2023/03/21 14:23:56;;;;;;;4.70;2.28;;;;;;;;;;5073594;28;20048;-58
2023/03/21 14:26:22;;;;;;;2.97;1.60;;;;;;;;;;5071981;28;20633;-58
2023/03/21 14:28:49;;;;;;;2.72;2.00;;;;;;;;;;5055095;28;20090;-58
2023/03/21 14:31:17;;;;;;;4.10;2.70;;;;;;;;;;5072882;28;20049;-58
2023/03/21 14:33:48;;;;;;;4.57;2.30;;;;;;;;;;5077990;28;20122;-58
2023/03/21 14:36:17;;;;;;;4.72;2.53;;;;;;;;;;5059106;28;20049;-58
2023/03/21 14:38:43;;;;;;;5.85;2.38;;;;;;;;;;5076777;28;20094;-58
2023/03/21 14:41:23;;;;;;;8.32;2.35;;;;;;;;;;5077052;28;20037;-58
2023/03/21 14:44:08;;;;;;;4.55;2.88;;;;;;;;;;5078152;28;20072;-58
2023/03/21 14:46:34;;;;;;;4.60;2.28;;;;;;;;;;5051872;28;20152;-58
2023/03/21 14:49:14;;;;;;;8.98;2.92;;;;;;;;;;5076091;28;20187;-58
2023/03/21 14:51:41;;;;;;;5.70;3.35;;;;;;;;;;5077562;28;20083;-58
2023/03/21 14:54:08;;;;;;;3.40;1.95;;;;;;;;;;5052118;28;20045;-58
2023/03/21 14:56:35;;;;;;;5.13;2.58;;;;;;;;;;5077651;28;20040;-58